PTKR  Koror, Palau, NWS Office  Airport

Federated States of Micronesia

Add Bookmark
ICAO PTKR
Type Airport
Status Operational
Latitude
7° 19' 48" N
7.330000
Longitude
134° 28' 47" E
134.480000
Local (GMT +9 ) UTC
Dec 7, 2016 11:20 pm Dec 7, 2016 14:20
Sunrise-Sunset Local UTC
Begin Civil Twilight 05:38 am 20:38
Sunrise 06:01 am 21:01
Sunset 05:46 pm 08:46
End Civil Twilight 06:08 pm 09:08
VFR
VFR
MVFR
MVFR
IFR
IFR
LIFR
LIFR
Unknown
No Data

Current Weather

METAR Observed MVFR
PTKR 071352Z 00000KT 11SM -SHRA BKN016CB OVC110 26/25 A2980 Wed, Dec 7, 2016 @ 13:52 UTC
(28 Minutes ago)
Marginal Visual Flight Rules
Wind Visibility Clouds Conditions
Calm 17,703 m
  • Broken at 1,600 ft AGL
  • Overcast at 11,000 ft AGL
  • Light Rain Showers
Temperatures Readings Precipitation
Current Temp
26°C
79°F
Dewpoint
25°C
77°F
Humidity 94%
Altimeter 29.8" Hg
Sea Level Pressure 1009.2 mb
Field Elevation
30 m
98 ft
None Recorded

Additional weather within a 92.6km radius of PTKR

Map ICAO Location
PTRO 8.1km N (360°)
VFR
VFR
MVFR
MVFR
IFR
IFR
LIFR
LIFR
Unknown
No Data
-
-

CheckWX.com is intended as a tool to help pilots better visualize weather data. It is not intended as a substitute for an official weather briefing obtained from a Flight Service Station. CheckWX.com does not meet the FAA requirements for an official pre-flight weather briefing. Therefore, it's important that pilots still call and obtain an official FSS pre-flight weather briefing.

© 2007-2016 CheckWX.com
14:20:31 UTC